createdAt,value
2018-02-24T00:00:21.511Z,1003.51
2018-02-24T00:01:27.415Z,1003.50
2018-02-24T00:02:33.312Z,1003.53
2018-02-24T00:03:39.149Z,1003.55
2018-02-24T00:04:44.556Z,1003.49
2018-02-24T00:05:50.940Z,1003.51
2018-02-24T00:06:56.857Z,1003.49
2018-02-24T00:08:02.732Z,1003.48
2018-02-24T00:09:08.129Z,1003.43
2018-02-24T00:10:14.012Z,1003.50
2018-02-24T00:11:19.913Z,1003.51
2018-02-24T00:12:25.812Z,1003.50
2018-02-24T00:13:31.674Z,1003.46
2018-02-24T00:14:37.638Z,1003.47
2018-02-24T00:15:44.458Z,1003.54
2018-02-24T00:16:49.379Z,1003.46
2018-02-24T00:17:55.264Z,1003.48
2018-02-24T00:19:01.136Z,1003.47
2018-02-24T00:20:07.014Z,1003.49
2018-02-24T00:21:12.919Z,1003.45
2018-02-24T00:22:18.825Z,1003.40
2018-02-24T00:23:24.680Z,1003.45
2018-02-24T00:24:30.576Z,1003.57
2018-02-24T00:25:36.457Z,1003.50
2018-02-24T00:26:42.377Z,1003.53
2018-02-24T00:27:48.231Z,1003.57
2018-02-24T00:28:54.314Z,1003.53
2018-02-24T00:30:00.015Z,1003.49
2018-02-24T00:31:05.904Z,1003.50
2018-02-24T00:32:11.804Z,1003.49
2018-02-24T00:33:17.661Z,1003.47
2018-02-24T00:34:23.556Z,1003.44
2018-02-24T00:35:29.440Z,1003.40
2018-02-24T00:36:35.326Z,1003.44
2018-02-24T00:37:41.224Z,1003.44
2018-02-24T00:38:47.078Z,1003.41
2018-02-24T00:39:52.961Z,1003.44
2018-02-24T00:40:58.856Z,1003.42
2018-02-24T00:42:04.746Z,1003.46
2018-02-24T00:43:10.620Z,1003.52
2018-02-24T00:44:17.482Z,1003.54
2018-02-24T00:45:22.370Z,1003.58
2018-02-24T00:46:28.248Z,1003.60
2018-02-24T00:47:34.151Z,1003.58
2018-02-24T00:48:40.012Z,1003.52
2018-02-24T00:49:45.903Z,1003.52
2018-02-24T00:50:51.771Z,1003.56
2018-02-24T00:51:57.675Z,1003.55
2018-02-24T00:53:03.566Z,1003.52
2018-02-24T00:54:09.407Z,1003.50
2018-02-24T00:55:15.284Z,1003.43
2018-02-24T00:56:21.172Z,1003.43
2018-02-24T00:57:27.066Z,1003.45
2018-02-24T00:58:32.927Z,1003.50
2018-02-24T00:59:38.814Z,1003.42
2018-02-24T01:00:44.688Z,1003.42
2018-02-24T01:01:50.607Z,1003.41
2018-02-24T01:02:56.458Z,1003.48
2018-02-24T01:04:03.319Z,1003.52
2018-02-24T01:05:08.223Z,1003.42
2018-02-24T01:06:14.091Z,1003.49
2018-02-24T01:07:20.002Z,1003.48
2018-02-24T01:08:26.146Z,1003.62
2018-02-24T01:09:31.736Z,1003.53
2018-02-24T01:10:37.614Z,1003.54
2018-02-24T01:11:44.019Z,1003.54
2018-02-24T01:12:49.388Z,1003.55
2018-02-24T01:13:55.321Z,1003.52
2018-02-24T01:15:01.150Z,1003.57
2018-02-24T01:16:07.014Z,1003.48
2018-02-24T01:17:12.902Z,1003.48
2018-02-24T01:18:18.774Z,1003.46
2018-02-24T01:19:24.654Z,1003.50
2018-02-24T01:20:31.009Z,1003.46
2018-02-24T01:21:36.892Z,1003.36
2018-02-24T01:22:42.297Z,1003.39
2018-02-24T01:23:48.141Z,1003.37
2018-02-24T01:24:54.017Z,1003.42
2018-02-24T01:26:00.886Z,1003.40
2018-02-24T01:27:05.817Z,1003.39
2018-02-24T01:28:11.650Z,1003.41
2018-02-24T01:29:18.704Z,1003.40
2018-02-24T01:30:23.398Z,1003.42
2018-02-24T01:31:29.256Z,1003.50
2018-02-24T01:32:35.160Z,1003.44
2018-02-24T01:33:41.005Z,1003.48
2018-02-24T01:34:46.879Z,1003.53
2018-02-24T01:35:52.742Z,1003.47
2018-02-24T01:36:59.119Z,1003.48
2018-02-24T01:38:04.479Z,1003.44
2018-02-24T01:39:10.356Z,1003.50
2018-02-24T01:40:16.215Z,1003.47
2018-02-24T01:41:22.087Z,1003.47
2018-02-24T01:42:27.977Z,1003.46
2018-02-24T01:43:33.813Z,1003.41
2018-02-24T01:44:39.685Z,1003.49
2018-02-24T01:45:45.555Z,1003.45
2018-02-24T01:46:51.416Z,1003.51
2018-02-24T01:47:57.316Z,1003.47
2018-02-24T01:49:03.149Z,1003.44
2018-02-24T01:50:09.022Z,1003.42
2018-02-24T01:51:15.363Z,1003.46
2018-02-24T01:52:20.765Z,1003.47
2018-02-24T01:53:26.602Z,1003.45
2018-02-24T01:54:32.497Z,1003.47
2018-02-24T01:55:38.825Z,1003.49
2018-02-24T01:56:44.178Z,1003.47
2018-02-24T01:57:50.082Z,1003.48
2018-02-24T01:58:55.903Z,1003.46
2018-02-24T02:00:01.775Z,1003.53
2018-02-24T02:01:07.633Z,1003.53
2018-02-24T02:02:13.506Z,1003.49
2018-02-24T02:03:19.349Z,1003.52
2018-02-24T02:04:25.209Z,1003.49
2018-02-24T02:05:31.078Z,1003.49
2018-02-24T02:06:36.938Z,1003.53
2018-02-24T02:07:42.824Z,1003.52
2018-02-24T02:08:49.162Z,1003.51
2018-02-24T02:09:54.521Z,1003.59
2018-02-24T02:11:00.395Z,1003.53
2018-02-24T02:12:06.272Z,1003.54
2018-02-24T02:13:12.114Z,1003.62
2018-02-24T02:14:17.980Z,1003.57
2018-02-24T02:15:24.327Z,1003.59
2018-02-24T02:16:29.715Z,1003.65
2018-02-24T02:17:35.588Z,1003.52
2018-02-24T02:18:41.434Z,1003.52
2018-02-24T02:19:47.464Z,1003.51
2018-02-24T02:20:53.156Z,1003.53
2018-02-24T02:21:59.035Z,1003.54
2018-02-24T02:23:04.923Z,1003.55
2018-02-24T02:24:10.760Z,1003.55
2018-02-24T02:25:16.624Z,1003.58
2018-02-24T02:26:22.478Z,1003.53
2018-02-24T02:27:28.368Z,1003.65
2018-02-24T02:28:34.208Z,1003.60
2018-02-24T02:29:40.081Z,1003.62
2018-02-24T02:30:46.434Z,1003.60
2018-02-24T02:31:51.794Z,1003.62
2018-02-24T02:32:57.681Z,1003.63
2018-02-24T02:34:03.549Z,1003.56
2018-02-24T02:35:09.406Z,1003.56
2018-02-24T02:36:15.255Z,1003.53
2018-02-24T02:37:21.128Z,1003.52
2018-02-24T02:38:26.981Z,1003.59
2018-02-24T02:39:32.845Z,1003.50
2018-02-24T02:40:38.697Z,1003.45
2018-02-24T02:41:44.564Z,1003.46
2018-02-24T02:42:50.443Z,1003.49
2018-02-24T02:43:56.288Z,1003.47
2018-02-24T02:45:02.151Z,1003.51
2018-02-24T02:46:08.030Z,1003.49
2018-02-24T02:47:13.899Z,1003.46
2018-02-24T02:48:19.738Z,1003.45
2018-02-24T02:49:25.618Z,1003.46
2018-02-24T02:50:31.484Z,1003.45
2018-02-24T02:51:37.340Z,1003.45
2018-02-24T02:52:43.234Z,1003.49
2018-02-24T02:53:49.087Z,1003.44
2018-02-24T02:54:54.940Z,1003.43
2018-02-24T02:56:00.810Z,1003.43
2018-02-24T02:57:06.685Z,1003.42
2018-02-24T02:58:12.591Z,1003.39
2018-02-24T02:59:18.893Z,1003.41
2018-02-24T03:00:24.274Z,1003.41
2018-02-24T03:01:30.143Z,1003.39
2018-02-24T03:02:36.027Z,1003.43
2018-02-24T03:03:41.941Z,1003.42
2018-02-24T03:04:48.214Z,1003.43
2018-02-24T03:05:53.588Z,1003.44
2018-02-24T03:06:59.949Z,1003.48
2018-02-24T03:08:05.342Z,1003.52
2018-02-24T03:09:11.179Z,1003.57
2018-02-24T03:10:17.034Z,1003.57
2018-02-24T03:11:22.901Z,1003.54
2018-02-24T03:12:28.795Z,1003.59
2018-02-24T03:13:34.625Z,1003.54
2018-02-24T03:14:40.476Z,1003.55
2018-02-24T03:15:46.343Z,1003.59
2018-02-24T03:16:52.199Z,1003.57
2018-02-24T03:17:58.103Z,1003.61
2018-02-24T03:19:03.919Z,1003.58
2018-02-24T03:20:09.796Z,1003.60
2018-02-24T03:21:15.640Z,1003.59
2018-02-24T03:22:21.517Z,1003.59
2018-02-24T03:23:27.371Z,1003.56
2018-02-24T03:24:33.226Z,1003.60
2018-02-24T03:25:39.076Z,1003.56
2018-02-24T03:26:44.949Z,1003.59
2018-02-24T03:27:50.832Z,1003.60
2018-02-24T03:28:56.670Z,1003.61
2018-02-24T03:30:02.534Z,1003.58
2018-02-24T03:31:08.878Z,1003.60
2018-02-24T03:32:14.267Z,1003.58
2018-02-24T03:33:20.156Z,1003.60
2018-02-24T03:34:25.977Z,1003.62
2018-02-24T03:35:32.326Z,1003.58
2018-02-24T03:36:38.195Z,1003.59
2018-02-24T03:37:43.563Z,1003.61
2018-02-24T03:38:49.405Z,1003.60
2018-02-24T03:39:55.298Z,1003.58
2018-02-24T03:41:01.311Z,1003.60
2018-02-24T03:42:06.991Z,1003.61
2018-02-24T03:43:12.862Z,1003.61
2018-02-24T03:44:18.698Z,1003.69
2018-02-24T03:45:24.558Z,1003.64
2018-02-24T03:46:30.413Z,1003.62
2018-02-24T03:47:36.283Z,1003.69
2018-02-24T03:48:42.121Z,1003.66
2018-02-24T03:49:47.983Z,1003.77
2018-02-24T03:50:53.839Z,1003.72
2018-02-24T03:52:00.193Z,1003.80
2018-02-24T03:53:05.564Z,1003.79
2018-02-24T03:54:11.407Z,1003.81
2018-02-24T03:55:17.249Z,1003.85
2018-02-24T03:56:23.113Z,1003.88
2018-02-24T03:57:28.996Z,1003.89
2018-02-24T03:58:34.825Z,1003.90
2018-02-24T03:59:40.692Z,1003.86
2018-02-24T04:00:46.537Z,1003.87
2018-02-24T04:01:52.437Z,1003.89
2018-02-24T04:02:58.285Z,1003.87
2018-02-24T04:04:04.608Z,1003.94
2018-02-24T04:05:09.977Z,1003.96
2018-02-24T04:06:15.922Z,1003.92
2018-02-24T04:07:21.695Z,1003.99
2018-02-24T04:08:27.574Z,1003.99
2018-02-24T04:09:33.418Z,1004.03
2018-02-24T04:10:39.275Z,1003.99
2018-02-24T04:11:45.128Z,1004.06
2018-02-24T04:12:51.006Z,1004.03
2018-02-24T04:13:57.339Z,1004.00
2018-02-24T04:15:02.718Z,1003.96
2018-02-24T04:16:08.592Z,1003.98
2018-02-24T04:17:14.440Z,1003.95
2018-02-24T04:18:20.324Z,1004.00
2018-02-24T04:19:26.164Z,1004.04
2018-02-24T04:20:32.037Z,1003.96
2018-02-24T04:21:37.911Z,1003.91
2018-02-24T04:22:43.775Z,1003.97
2018-02-24T04:23:49.619Z,1003.98
2018-02-24T04:24:55.471Z,1004.00
2018-02-24T04:26:01.327Z,1004.07
2018-02-24T04:27:07.192Z,1004.01
2018-02-24T04:28:13.072Z,1004.00
2018-02-24T04:29:18.917Z,1004.05
2018-02-24T04:30:25.787Z,1004.01
2018-02-24T04:31:30.635Z,1004.04
2018-02-24T04:32:36.533Z,1004.04
2018-02-24T04:33:42.360Z,1003.94
2018-02-24T04:34:48.231Z,1004.04
2018-02-24T04:35:54.093Z,1004.02
2018-02-24T04:36:59.954Z,1003.99
2018-02-24T04:38:05.839Z,1003.99
2018-02-24T04:39:11.681Z,1003.99
2018-02-24T04:40:17.540Z,1004.00
2018-02-24T04:41:23.407Z,1003.99
2018-02-24T04:42:29.271Z,1004.07
2018-02-24T04:43:35.150Z,1003.93
2018-02-24T04:44:41.492Z,1003.95
2018-02-24T04:45:46.858Z,1003.94
2018-02-24T04:46:52.724Z,1004.04
2018-02-24T04:47:58.604Z,1004.07
2018-02-24T04:49:04.440Z,1004.01
2018-02-24T04:50:10.316Z,1003.99
2018-02-24T04:51:16.169Z,1004.05
2018-02-24T04:52:22.032Z,1004.00
2018-02-24T04:53:27.919Z,1004.06
2018-02-24T04:54:33.749Z,1003.99
2018-02-24T04:55:39.619Z,1003.98
2018-02-24T04:56:45.480Z,1004.03
2018-02-24T04:57:51.347Z,1004.01
2018-02-24T04:58:57.223Z,1003.99
2018-02-24T05:00:03.074Z,1004.02
2018-02-24T05:01:08.927Z,1004.01
2018-02-24T05:02:14.789Z,1004.01
2018-02-24T05:03:20.664Z,1003.96
2018-02-24T05:04:26.508Z,1004.00
2018-02-24T05:05:32.867Z,1004.07
2018-02-24T05:06:38.238Z,1004.02
2018-02-24T05:07:44.101Z,1004.04
2018-02-24T05:08:49.967Z,1004.04
2018-02-24T05:09:55.819Z,1004.08
2018-02-24T05:11:01.707Z,1003.99
2018-02-24T05:12:07.548Z,1004.05
2018-02-24T05:13:13.424Z,1003.97
2018-02-24T05:14:19.261Z,1004.09
2018-02-24T05:15:25.614Z,1004.12
2018-02-24T05:16:30.991Z,1004.00
2018-02-24T05:17:36.856Z,1004.11
2018-02-24T05:18:42.747Z,1004.22
2018-02-24T05:19:48.586Z,1004.09
2018-02-24T05:20:54.441Z,1004.22
2018-02-24T05:22:00.303Z,1004.16
2018-02-24T05:23:06.173Z,1004.24
2018-02-24T05:24:12.052Z,1004.29
2018-02-24T05:25:18.391Z,1004.27
2018-02-24T05:26:23.758Z,1004.30
2018-02-24T05:27:29.614Z,1004.27
2018-02-24T05:28:35.998Z,1004.27
2018-02-24T05:29:41.353Z,1004.31
2018-02-24T05:30:47.209Z,1004.35
2018-02-24T05:31:53.075Z,1004.35
2018-02-24T05:32:58.925Z,1004.35
2018-02-24T05:34:04.815Z,1004.33
2018-02-24T05:35:10.653Z,1004.41
2018-02-24T05:36:17.033Z,1004.42
2018-02-24T05:37:22.400Z,1004.39
2018-02-24T05:38:28.269Z,1004.44
2018-02-24T05:39:34.109Z,1004.39
2018-02-24T05:40:39.977Z,1004.36
2018-02-24T05:41:45.833Z,1004.33
2018-02-24T05:42:51.697Z,1004.39
2018-02-24T05:43:57.583Z,1004.36
2018-02-24T05:45:03.422Z,1004.49
2018-02-24T05:46:09.774Z,1004.51
2018-02-24T05:47:15.145Z,1004.51
2018-02-24T05:48:21.035Z,1004.49
2018-02-24T05:49:26.948Z,1004.55
2018-02-24T05:50:32.733Z,1004.53
2018-02-24T05:51:38.591Z,1004.52
2018-02-24T05:52:44.466Z,1004.55
2018-02-24T05:53:50.345Z,1004.52
2018-02-24T05:54:57.173Z,1004.51
2018-02-24T05:56:02.537Z,1004.55
2018-02-24T05:57:07.903Z,1004.50
2018-02-24T05:58:13.761Z,1004.50
2018-02-24T05:59:19.654Z,1004.51
2018-02-24T06:00:25.479Z,1004.50
2018-02-24T06:01:31.346Z,1004.59
2018-02-24T06:02:37.216Z,1004.62
2018-02-24T06:03:43.579Z,1004.57
2018-02-24T06:04:48.913Z,1004.57
2018-02-24T06:05:54.774Z,1004.57
2018-02-24T06:07:00.632Z,1004.59
2018-02-24T06:08:06.491Z,1004.60
2018-02-24T06:09:12.943Z,1004.63
2018-02-24T06:10:18.214Z,1004.65
2018-02-24T06:11:24.071Z,1004.67
2018-02-24T06:12:29.921Z,1004.69
2018-02-24T06:13:35.800Z,1004.69
2018-02-24T06:14:41.650Z,1004.73
2018-02-24T06:15:47.542Z,1004.72
2018-02-24T06:16:53.364Z,1004.77
2018-02-24T06:17:59.223Z,1004.79
2018-02-24T06:19:05.105Z,1004.81
2018-02-24T06:20:10.938Z,1004.83
2018-02-24T06:21:16.828Z,1004.80
2018-02-24T06:22:22.641Z,1004.82
2018-02-24T06:23:28.542Z,1004.86
2018-02-24T06:24:34.373Z,1004.86
2018-02-24T06:25:40.223Z,1004.87
2018-02-24T06:26:46.589Z,1004.88
2018-02-24T06:27:51.941Z,1004.85
2018-02-24T06:28:57.821Z,1004.92
2018-02-24T06:30:03.675Z,1004.90
2018-02-24T06:31:09.511Z,1004.88
2018-02-24T06:32:15.372Z,1004.92
2018-02-24T06:33:21.238Z,1004.90
2018-02-24T06:34:27.113Z,1004.92
2018-02-24T06:35:32.960Z,1004.94
2018-02-24T06:36:38.834Z,1004.86
2018-02-24T06:37:44.688Z,1004.89
2018-02-24T06:38:50.581Z,1004.90
2018-02-24T06:39:56.452Z,1004.89
2018-02-24T06:41:02.285Z,1004.95
2018-02-24T06:42:08.158Z,1004.98
2018-02-24T06:43:14.026Z,1004.97
2018-02-24T06:44:20.401Z,1004.94
2018-02-24T06:45:25.754Z,1004.98
2018-02-24T06:46:32.135Z,1004.99
2018-02-24T06:47:37.498Z,1004.99
2018-02-24T06:48:43.943Z,1004.99
2018-02-24T06:49:49.240Z,1004.89
2018-02-24T06:50:55.608Z,1004.94
2018-02-24T06:52:00.992Z,1004.91
2018-02-24T06:53:06.941Z,1004.91
2018-02-24T06:54:12.768Z,1005.03
2018-02-24T06:55:18.625Z,1004.96
2018-02-24T06:56:24.488Z,1005.04
2018-02-24T06:57:30.381Z,1005.03
2018-02-24T06:58:36.289Z,1005.02
2018-02-24T06:59:42.129Z,1004.98
2018-02-24T07:00:48.559Z,1005.08
2018-02-24T07:01:53.898Z,1005.03
2018-02-24T07:02:59.782Z,1005.05
2018-02-24T07:04:05.688Z,1005.11
2018-02-24T07:05:11.541Z,1005.10
2018-02-24T07:06:17.439Z,1005.05
2018-02-24T07:07:23.330Z,1005.13
2018-02-24T07:08:29.210Z,1005.14
2018-02-24T07:09:35.117Z,1005.16
2018-02-24T07:10:40.989Z,1005.09
2018-02-24T07:11:46.877Z,1005.10
2018-02-24T07:12:52.771Z,1005.13
2018-02-24T07:13:58.685Z,1005.10
2018-02-24T07:15:04.564Z,1005.11
2018-02-24T07:16:10.448Z,1005.15
2018-02-24T07:17:16.829Z,1005.13
2018-02-24T07:18:22.237Z,1005.20
2018-02-24T07:19:28.152Z,1005.14
2018-02-24T07:20:34.022Z,1005.16
2018-02-24T07:21:39.912Z,1005.12
2018-02-24T07:22:46.306Z,1005.20
2018-02-24T07:23:51.733Z,1005.29
2018-02-24T07:24:58.120Z,1005.25
2018-02-24T07:26:03.559Z,1005.22
2018-02-24T07:27:09.416Z,1005.27
2018-02-24T07:28:15.313Z,1005.26
2018-02-24T07:29:21.252Z,1005.19
2018-02-24T07:30:27.128Z,1005.27
2018-02-24T07:31:33.029Z,1005.24
2018-02-24T07:32:38.937Z,1005.31
2018-02-24T07:33:44.918Z,1005.21
2018-02-24T07:34:50.758Z,1005.24
2018-02-24T07:35:56.661Z,1005.30
2018-02-24T07:37:02.556Z,1005.30
2018-02-24T07:38:08.470Z,1005.25
2018-02-24T07:39:14.407Z,1005.24
2018-02-24T07:40:20.291Z,1005.26
2018-02-24T07:41:26.217Z,1005.30
2018-02-24T07:42:32.104Z,1005.37
2018-02-24T07:43:38.026Z,1005.37
2018-02-24T07:44:43.957Z,1005.34
2018-02-24T07:45:49.855Z,1005.34
2018-02-24T07:46:55.776Z,1005.40
2018-02-24T07:48:01.702Z,1005.37
2018-02-24T07:49:07.623Z,1005.37
2018-02-24T07:50:13.523Z,1005.38
2018-02-24T07:51:19.946Z,1005.45
2018-02-24T07:52:25.354Z,1005.40
2018-02-24T07:53:31.292Z,1005.39
2018-02-24T07:54:37.225Z,1005.48
2018-02-24T07:55:43.639Z,1005.43
2018-02-24T07:56:49.061Z,1005.42
2018-02-24T07:57:54.980Z,1005.44
2018-02-24T07:59:00.934Z,1005.46
2018-02-24T08:00:06.842Z,1005.53
2018-02-24T08:01:12.759Z,1005.45
2018-02-24T08:02:18.704Z,1005.48
2018-02-24T08:03:24.634Z,1005.48
2018-02-24T08:04:30.585Z,1005.47
2018-02-24T08:05:36.478Z,1005.47
2018-02-24T08:06:42.410Z,1005.53
2018-02-24T08:07:48.345Z,1005.53
2018-02-24T08:08:54.299Z,1005.58
2018-02-24T08:10:00.238Z,1005.43
2018-02-24T08:11:06.164Z,1005.43
2018-02-24T08:12:12.112Z,1005.39
2018-02-24T08:13:18.027Z,1005.37
2018-02-24T08:14:24.004Z,1005.36
2018-02-24T08:15:30.416Z,1005.42
2018-02-24T08:16:35.860Z,1005.36
2018-02-24T08:17:42.297Z,1005.38
2018-02-24T08:18:47.741Z,1005.40
2018-02-24T08:19:54.208Z,1005.46
2018-02-24T08:20:59.636Z,1005.43
2018-02-24T08:22:05.570Z,1005.41
2018-02-24T08:23:11.517Z,1005.47
2018-02-24T08:24:17.483Z,1005.50
2018-02-24T08:25:23.411Z,1005.50
2018-02-24T08:26:29.360Z,1005.50
2018-02-24T08:27:35.304Z,1005.44
2018-02-24T08:28:41.251Z,1005.34
2018-02-24T08:29:47.247Z,1005.42
2018-02-24T08:30:53.158Z,1005.41
2018-02-24T08:31:59.113Z,1005.37
2018-02-24T08:33:05.070Z,1005.40
2018-02-24T08:34:11.043Z,1005.38
2018-02-24T08:35:17.971Z,1005.34
2018-02-24T08:36:23.437Z,1005.33
2018-02-24T08:37:28.888Z,1005.38
2018-02-24T08:38:34.923Z,1005.40
2018-02-24T08:39:40.832Z,1005.37
2018-02-24T08:40:47.280Z,1005.45
2018-02-24T08:41:52.769Z,1005.43
2018-02-24T08:42:59.197Z,1005.41
2018-02-24T08:44:04.668Z,1005.38
2018-02-24T08:45:10.654Z,1005.41
2018-02-24T08:46:16.590Z,1005.49
2018-02-24T08:47:22.591Z,1005.43
2018-02-24T08:48:28.525Z,1005.40
2018-02-24T08:49:34.521Z,1005.44
2018-02-24T08:50:40.472Z,1005.43
2018-02-24T08:51:46.435Z,1005.43
2018-02-24T08:52:52.405Z,1005.51
2018-02-24T08:53:58.921Z,1005.44
2018-02-24T08:55:04.376Z,1005.45
2018-02-24T08:56:10.340Z,1005.46
2018-02-24T08:57:16.313Z,1005.50
2018-02-24T08:58:22.324Z,1005.47
2018-02-24T08:59:28.301Z,1005.50
2018-02-24T09:00:34.768Z,1005.50
2018-02-24T09:01:40.245Z,1005.44
2018-02-24T09:02:46.251Z,1005.44
2018-02-24T09:03:52.232Z,1005.45
2018-02-24T09:04:58.238Z,1005.39
2018-02-24T09:06:04.232Z,1005.40
2018-02-24T09:07:10.230Z,1005.38
2018-02-24T09:08:16.226Z,1005.32
2018-02-24T09:09:22.245Z,1005.32
2018-02-24T09:10:28.202Z,1005.35
2018-02-24T09:11:34.209Z,1005.41
2018-02-24T09:12:40.208Z,1005.38
2018-02-24T09:13:46.209Z,1005.39
2018-02-24T09:14:52.227Z,1005.36
2018-02-24T09:15:58.709Z,1005.38
2018-02-24T09:17:04.233Z,1005.38
2018-02-24T09:18:10.233Z,1005.33
2018-02-24T09:19:16.238Z,1005.43
2018-02-24T09:20:22.756Z,1005.39
2018-02-24T09:21:28.269Z,1005.42
2018-02-24T09:22:34.267Z,1005.43
2018-02-24T09:23:40.273Z,1005.38
2018-02-24T09:24:46.305Z,1005.34
2018-02-24T09:25:52.288Z,1005.35
2018-02-24T09:26:58.832Z,1005.36
2018-02-24T09:28:04.822Z,1005.42
2018-02-24T09:29:10.335Z,1005.32
2018-02-24T09:30:16.395Z,1005.34
2018-02-24T09:31:22.923Z,1005.36
2018-02-24T09:32:28.929Z,1005.33
2018-02-24T09:33:34.923Z,1005.42
2018-02-24T09:34:40.443Z,1005.33
2018-02-24T09:35:46.432Z,1005.43
2018-02-24T09:36:52.472Z,1005.44
2018-02-24T09:37:58.467Z,1005.47
2018-02-24T09:39:04.492Z,1005.45
2018-02-24T09:40:10.534Z,1005.49
2018-02-24T09:41:16.537Z,1005.51
2018-02-24T09:42:23.052Z,1005.57
2018-02-24T09:43:28.593Z,1005.50
2018-02-24T09:44:34.629Z,1005.52
2018-02-24T09:45:40.627Z,1005.48
2018-02-24T09:46:46.651Z,1005.48
2018-02-24T09:47:53.194Z,1005.44
2018-02-24T09:48:59.204Z,1005.45
2018-02-24T09:50:04.760Z,1005.47
2018-02-24T09:51:11.280Z,1005.44
2018-02-24T09:52:17.309Z,1005.48
2018-02-24T09:53:23.336Z,1005.41
2018-02-24T09:54:29.394Z,1005.47
2018-02-24T09:55:34.902Z,1005.48
2018-02-24T09:56:41.445Z,1005.49
2018-02-24T09:57:47.482Z,1005.52
2018-02-24T09:58:53.508Z,1005.44
2018-02-24T09:59:59.579Z,1005.47
2018-02-24T10:01:05.591Z,1005.38
2018-02-24T10:02:11.149Z,1005.47
2018-02-24T10:03:17.678Z,1005.44
2018-02-24T10:04:23.222Z,1005.49
2018-02-24T10:05:29.328Z,1005.54
2018-02-24T10:06:35.315Z,1005.40
2018-02-24T10:07:41.863Z,1005.53
2018-02-24T10:08:47.428Z,1005.43
2018-02-24T10:09:53.982Z,1005.42
2018-02-24T10:10:59.510Z,1005.45
2018-02-24T10:12:06.045Z,1005.41
2018-02-24T10:13:11.614Z,1005.44
2018-02-24T10:14:18.163Z,1005.34
2018-02-24T10:15:23.735Z,1005.42
2018-02-24T10:16:29.785Z,1005.41
2018-02-24T10:17:36.324Z,1005.44
2018-02-24T10:18:41.886Z,1005.38
2018-02-24T10:19:47.962Z,1005.40
2018-02-24T10:20:53.993Z,1005.40
2018-02-24T10:22:00.066Z,1005.40
2018-02-24T10:23:06.126Z,1005.33
2018-02-24T10:24:12.676Z,1005.37
2018-02-24T10:25:18.274Z,1005.39
2018-02-24T10:26:24.325Z,1005.39
2018-02-24T10:27:30.380Z,1005.36
2018-02-24T10:28:36.458Z,1005.38
2018-02-24T10:29:42.543Z,1005.33
2018-02-24T10:30:48.564Z,1005.31
2018-02-24T10:31:55.164Z,1005.29
2018-02-24T10:33:00.723Z,1005.35
2018-02-24T10:34:06.772Z,1005.32
2018-02-24T10:35:12.944Z,1005.29
2018-02-24T10:36:18.912Z,1005.28
2018-02-24T10:37:24.986Z,1005.33
2018-02-24T10:38:31.069Z,1005.39
2018-02-24T10:39:37.124Z,1005.35
2018-02-24T10:40:43.214Z,1005.38
2018-02-24T10:41:49.271Z,1005.39
2018-02-24T10:42:55.845Z,1005.29
2018-02-24T10:44:01.429Z,1005.33
2018-02-24T10:45:07.507Z,1005.33
2018-02-24T10:46:13.559Z,1005.35
2018-02-24T10:47:19.649Z,1005.35
2018-02-24T10:48:25.727Z,1005.34
2018-02-24T10:49:32.282Z,1005.28
2018-02-24T10:50:37.914Z,1005.34
2018-02-24T10:51:43.965Z,1005.22
2018-02-24T10:52:50.039Z,1005.35
2018-02-24T10:53:56.108Z,1005.38
2018-02-24T10:55:02.221Z,1005.33
2018-02-24T10:56:08.273Z,1005.33
2018-02-24T10:57:14.346Z,1005.37
2018-02-24T10:58:20.924Z,1005.42
2018-02-24T10:59:27.020Z,1005.31
2018-02-24T11:00:32.625Z,1005.36
2018-02-24T11:01:38.708Z,1005.32
2018-02-24T11:02:44.772Z,1005.31
2018-02-24T11:03:50.929Z,1005.35
2018-02-24T11:04:56.970Z,1005.26
2018-02-24T11:06:03.034Z,1005.31
2018-02-24T11:07:09.129Z,1005.20
2018-02-24T11:08:15.204Z,1005.23
2018-02-24T11:09:21.293Z,1005.21
2018-02-24T11:10:27.419Z,1005.12
2018-02-24T11:11:33.475Z,1005.16
2018-02-24T11:12:39.570Z,1005.14
2018-02-24T11:13:46.163Z,1005.10
2018-02-24T11:14:51.758Z,1005.11
2018-02-24T11:15:57.835Z,1005.17
2018-02-24T11:17:03.924Z,1005.09
2018-02-24T11:18:10.022Z,1005.15
2018-02-24T11:19:16.113Z,1005.26
2018-02-24T11:20:22.225Z,1005.05
2018-02-24T11:21:28.304Z,1005.19
2018-02-24T11:22:34.395Z,1005.11
2018-02-24T11:23:40.508Z,1005.03
2018-02-24T11:24:46.584Z,1005.05
2018-02-24T11:25:52.706Z,1004.96
2018-02-24T11:26:58.787Z,1005.02
2018-02-24T11:28:04.877Z,1004.94
2018-02-24T11:29:10.983Z,1004.95
2018-02-24T11:30:17.109Z,1005.01
2018-02-24T11:31:23.178Z,1004.92
2018-02-24T11:32:29.272Z,1004.91
2018-02-24T11:33:35.667Z,1004.98
2018-02-24T11:34:41.477Z,1004.89
2018-02-24T11:35:47.596Z,1004.99
2018-02-24T11:36:53.674Z,1004.86
2018-02-24T11:37:59.784Z,1004.84
2018-02-24T11:39:06.395Z,1004.82
2018-02-24T11:40:12.017Z,1004.83
2018-02-24T11:41:18.114Z,1004.85
2018-02-24T11:42:24.223Z,1004.80
2018-02-24T11:43:30.370Z,1004.79
2018-02-24T11:44:36.525Z,1004.76
2018-02-24T11:45:42.725Z,1004.80
2018-02-24T11:46:48.886Z,1004.78
2018-02-24T11:47:55.087Z,1004.75
2018-02-24T11:49:01.805Z,1004.69
2018-02-24T11:50:07.574Z,1004.89
2018-02-24T11:51:13.802Z,1004.81
2018-02-24T11:52:20.071Z,1004.88
2018-02-24T11:53:26.362Z,1004.91
2018-02-24T11:54:32.646Z,1004.82
2018-02-24T11:55:39.030Z,1004.82
2018-02-24T11:56:45.268Z,1004.79
2018-02-24T11:57:51.599Z,1004.84
2018-02-24T11:58:57.961Z,1004.85
2018-02-24T12:00:04.304Z,1004.89
2018-02-24T12:01:10.630Z,1004.94
2018-02-24T12:02:16.986Z,1004.91
2018-02-24T12:03:23.393Z,1004.94
2018-02-24T12:04:29.712Z,1004.93
2018-02-24T12:05:36.120Z,1004.88
2018-02-24T12:06:42.479Z,1004.93
2018-02-24T12:07:48.942Z,1004.83
2018-02-24T12:08:55.299Z,1004.90
2018-02-24T12:10:02.184Z,1004.83
2018-02-24T12:11:08.068Z,1004.77
2018-02-24T12:12:14.464Z,1004.97
2018-02-24T12:13:20.886Z,1004.81
2018-02-24T12:14:27.287Z,1004.92
2018-02-24T12:15:33.732Z,1004.79
2018-02-24T12:16:40.133Z,1004.84
2018-02-24T12:17:46.546Z,1004.92
2018-02-24T12:18:52.962Z,1004.88
2018-02-24T12:19:59.388Z,1004.74
2018-02-24T12:21:05.830Z,1004.85
2018-02-24T12:22:12.257Z,1004.72
2018-02-24T12:23:18.688Z,1004.69
2018-02-24T12:24:25.121Z,1004.67
2018-02-24T12:25:31.582Z,1004.79
2018-02-24T12:26:38.009Z,1004.75
2018-02-24T12:27:44.485Z,1004.71
2018-02-24T12:28:50.901Z,1004.83
2018-02-24T12:29:57.362Z,1004.75
2018-02-24T12:31:03.830Z,1004.77
2018-02-24T12:32:10.274Z,1004.69
2018-02-24T12:33:16.731Z,1004.77
2018-02-24T12:34:23.174Z,1004.78
2018-02-24T12:35:29.685Z,1004.83
2018-02-24T12:36:36.083Z,1004.69
2018-02-24T12:37:42.544Z,1004.73
2018-02-24T12:38:49.016Z,1004.75
2018-02-24T12:39:55.483Z,1004.80
2018-02-24T12:41:01.961Z,1004.76
2018-02-24T12:42:08.391Z,1004.73
2018-02-24T12:43:14.857Z,1004.72
2018-02-24T12:44:21.336Z,1004.68
2018-02-24T12:45:27.822Z,1004.74
2018-02-24T12:46:34.372Z,1004.75
2018-02-24T12:47:41.728Z,1004.79
2018-02-24T12:48:47.221Z,1004.69
2018-02-24T12:49:53.691Z,1004.73
2018-02-24T12:51:00.182Z,1004.72
2018-02-24T12:52:06.669Z,1004.62
2018-02-24T12:53:13.118Z,1004.60
2018-02-24T12:54:19.611Z,1004.74
2018-02-24T12:55:26.119Z,1004.69
2018-02-24T12:56:32.595Z,1004.62
2018-02-24T12:57:39.068Z,1004.71
2018-02-24T12:58:45.553Z,1004.59
2018-02-24T12:59:52.047Z,1004.55
2018-02-24T13:00:58.558Z,1004.63
2018-02-24T13:02:05.008Z,1004.56
2018-02-24T13:03:11.494Z,1004.51
2018-02-24T13:04:18.997Z,1004.56
2018-02-24T13:05:24.508Z,1004.62
2018-02-24T13:06:30.991Z,1004.55
2018-02-24T13:07:37.468Z,1004.59
2018-02-24T13:08:43.982Z,1004.59
2018-02-24T13:09:50.479Z,1004.62
2018-02-24T13:10:57.000Z,1004.62
2018-02-24T13:12:03.504Z,1004.57
2018-02-24T13:13:09.987Z,1004.51
2018-02-24T13:14:16.504Z,1004.51
2018-02-24T13:15:23.027Z,1004.60
2018-02-24T13:16:29.526Z,1004.57
2018-02-24T13:17:36.036Z,1004.60